Yvonne K. — PBLX — position and weather

sailwx.info

Track history (hours):
 
Tides and Currents Weather Stations Pressure Air Temp Water Temp Dewpoint Dewpoint Depression Visibility Wind Speed Wind Dir Waves Ship Positions

Yvonne K.

Last reported at 2018-Feb-20 05:30 UTC. Time now 2018-Feb-20 05:58 UTC.
Position N 53°49' E 008°06'.

Length 90 m; draft 5.6 m.

Type: Cargo ship. MMSI: 244948000.

Date/timePositionNaut miles runAvg speedWind from/ knotsBaromVisibWave heightAir tempDewpointWater temp
2018-Feb-20 05:30N 53°49' E 008°06'3 6.8
2018-Feb-20 05:00N 53°51' E 008°01'104 9.9
2018-Feb-19 18:31N 53°30' E 005°09'010.9
2018-Feb-19 18:29N 53°30' E 005°09'510.9
2018-Feb-19 18:00N 53°28' E 005°01'42 9.0
2018-Feb-19 13:23N 52°55' E 004°18'103 9.5
2018-Feb-19 02:33N 51°38' E 002°26'111.2
2018-Feb-19 02:25N 51°37' E 002°25'510.8
2018-Feb-19 01:59N 51°33' E 002°20'510.5
2018-Feb-19 01:30N 51°29' E 002°15'5 9.8
2018-Feb-19 00:59N 51°24' E 002°12'5 9.8
2018-Feb-19 00:30N 51°20' E 002°08'5 9.2
2018-Feb-19 00:01N 51°16' E 002°05'4 8.5
2018-Feb-18 23:31N 51°13' E 002°00'4 7.8
2018-Feb-18 23:00N 51°11' E 001°55'4 7.0
2018-Feb-18 22:29N 51°08' E 001°51'3 6.4
2018-Feb-18 22:00N 51°06' E 001°47'3 6.1
2018-Feb-18 21:30N 51°04' E 001°44'3 6.1
2018-Feb-18 21:00N 51°02' E 001°40'3 6.0
2018-Feb-18 20:30N 50°60' E 001°37'3 6.2
2018-Feb-18 20:00N 50°57' E 001°34'3 6.3
2018-Feb-18 19:30N 50°55' E 001°31'3 7.0
2018-Feb-18 19:00N 50°52' E 001°28'117 9.5
2018-Feb-18 06:44N 50°04' W 001°20'2 9.1
2018-Feb-18 06:30N 50°03' W 001°23'4 8.4
2018-Feb-18 06:00N 50°02' W 001°29'4 7.4
2018-Feb-18 05:31N 50°01' W 001°35'3 6.7
2018-Feb-18 05:00N 50°00' W 001°40'3 6.0
2018-Feb-18 04:30N 49°60' W 001°44'3 5.5
2018-Feb-18 04:00N 49°59' W 001°48'3 5.0
2018-Feb-18 03:30N 49°58' W 001°52'2 4.8
2018-Feb-18 03:01N 49°58' W 001°56'2 4.7
2018-Feb-18 02:30N 49°57' W 001°59'19 7.4
2018-Feb-17 23:54N 49°52' W 002°28'4 9.5
2018-Feb-17 23:31N 49°51' W 002°34'135 9.2
2018-Feb-17 08:53N 48°46' W 005°34'  
2018-Feb-14 06:34N 39°15' W 009°49'1 7.9
2018-Feb-14 06:30N 39°14' W 009°50'4 7.8
2018-Feb-14 06:00N 39°11' W 009°50'4 7.7
2018-Feb-14 05:30N 39°07' W 009°50'4 7.6
2018-Feb-14 05:00N 39°03' W 009°50'4 7.8
2018-Feb-14 04:30N 38°59' W 009°50'4 8.0
2018-Feb-14 03:59N 38°55' W 009°50'4 8.0
2018-Feb-14 03:30N 38°51' W 009°50'4 8.1
2018-Feb-14 03:00N 38°47' W 009°50'4 8.2
2018-Feb-14 02:30N 38°43' W 009°50'4 8.2
2018-Feb-14 02:01N 38°39' W 009°49'4 8.0
2018-Feb-14 01:31N 38°35' W 009°47'4 8.2
2018-Feb-14 01:00N 38°31' W 009°46'4 8.1
2018-Feb-14 00:30N 38°27' W 009°45'4 8.0
2018-Feb-14 00:00N 38°23' W 009°44'5 7.8
2018-Feb-13 23:25N 38°19' W 009°43'11 7.9
2018-Feb-13 21:59N 38°08' W 009°40'238 7.4
2018-Feb-12 13:52N 36°00' W 005°27'2 6.4
2018-Feb-12 13:30N 36°01' W 005°25'4 7.3
2018-Feb-12 13:00N 35°57' W 005°22'4 7.6
2018-Feb-12 12:30N 35°55' W 005°19'1 2.2
2018-Feb-12 12:00N 35°54' W 005°18'0 0.0
2018-Feb-12 11:30N 35°54' W 005°18'0 0.0
2018-Feb-12 11:00N 35°54' W 005°18'0 0.0
2018-Feb-12 10:30N 35°54' W 005°18'0 0.0
2018-Feb-12 10:00N 35°54' W 005°18'0 0.0
2018-Feb-12 09:30N 35°54' W 005°18'0 0.1
2018-Feb-12 09:00N 35°54' W 005°18'2 4.5
2018-Feb-12 08:30N 35°56' W 005°17'233 7.6
2018-Feb-11 01:56N 37°24' W 000°49'4 9.4
2018-Feb-11 01:30N 37°26' W 000°45'5 9.0
2018-Feb-11 00:58N 37°30' W 000°40'5 9.0
2018-Feb-11 00:26N 37°33' W 000°36'5 8.8
2018-Feb-10 23:51N 37°37' W 000°31'3 8.6
2018-Feb-10 23:30N 37°39' W 000°29'4 8.5
2018-Feb-10 23:00N 37°43' W 000°26'  
Track history (hours):
 
Tides and Currents Weather Stations Pressure Air Temp Water Temp Dewpoint Dewpoint Depression Visibility Wind Speed Wind Dir Waves Ship Positions

Yvonne K.

Last reported at 2018-Feb-20 05:30 UTC. Time now 2018-Feb-20 05:58 UTC.
Position N 53°49' E 008°06'.

Length 90 m; draft 5.6 m.

Type: Cargo ship. MMSI: 244948000.

Date/timePositionNaut miles runAvg speedWind from/ knotsBaromVisibWave heightAir tempDewpointWater temp
2018-Feb-20 05:30N 53°49' E 008°06'3 6.8
2018-Feb-20 05:00N 53°51' E 008°01'104 9.9
2018-Feb-19 18:31N 53°30' E 005°09'010.9
2018-Feb-19 18:29N 53°30' E 005°09'510.9
2018-Feb-19 18:00N 53°28' E 005°01'42 9.0
2018-Feb-19 13:23N 52°55' E 004°18'103 9.5
2018-Feb-19 02:33N 51°38' E 002°26'111.2
2018-Feb-19 02:25N 51°37' E 002°25'510.8
2018-Feb-19 01:59N 51°33' E 002°20'510.5
2018-Feb-19 01:30N 51°29' E 002°15'5 9.8
2018-Feb-19 00:59N 51°24' E 002°12'5 9.8
2018-Feb-19 00:30N 51°20' E 002°08'5 9.2
2018-Feb-19 00:01N 51°16' E 002°05'4 8.5
2018-Feb-18 23:31N 51°13' E 002°00'4 7.8
2018-Feb-18 23:00N 51°11' E 001°55'4 7.0
2018-Feb-18 22:29N 51°08' E 001°51'3 6.4
2018-Feb-18 22:00N 51°06' E 001°47'3 6.1
2018-Feb-18 21:30N 51°04' E 001°44'3 6.1
2018-Feb-18 21:00N 51°02' E 001°40'3 6.0
2018-Feb-18 20:30N 50°60' E 001°37'3 6.2
2018-Feb-18 20:00N 50°57' E 001°34'3 6.3
2018-Feb-18 19:30N 50°55' E 001°31'3 7.0
2018-Feb-18 19:00N 50°52' E 001°28'117 9.5
2018-Feb-18 06:44N 50°04' W 001°20'2 9.1
2018-Feb-18 06:30N 50°03' W 001°23'4 8.4
2018-Feb-18 06:00N 50°02' W 001°29'4 7.4
2018-Feb-18 05:31N 50°01' W 001°35'3 6.7
2018-Feb-18 05:00N 50°00' W 001°40'3 6.0
2018-Feb-18 04:30N 49°60' W 001°44'3 5.5
2018-Feb-18 04:00N 49°59' W 001°48'3 5.0
2018-Feb-18 03:30N 49°58' W 001°52'2 4.8
2018-Feb-18 03:01N 49°58' W 001°56'2 4.7
2018-Feb-18 02:30N 49°57' W 001°59'19 7.4
2018-Feb-17 23:54N 49°52' W 002°28'4 9.5
2018-Feb-17 23:31N 49°51' W 002°34'135 9.2
2018-Feb-17 08:53N 48°46' W 005°34'  
2018-Feb-14 06:34N 39°15' W 009°49'1 7.9
2018-Feb-14 06:30N 39°14' W 009°50'4 7.8
2018-Feb-14 06:00N 39°11' W 009°50'4 7.7
2018-Feb-14 05:30N 39°07' W 009°50'4 7.6
2018-Feb-14 05:00N 39°03' W 009°50'4 7.8
2018-Feb-14 04:30N 38°59' W 009°50'4 8.0
2018-Feb-14 03:59N 38°55' W 009°50'4 8.0
2018-Feb-14 03:30N 38°51' W 009°50'4 8.1
2018-Feb-14 03:00N 38°47' W 009°50'4 8.2
2018-Feb-14 02:30N 38°43' W 009°50'4 8.2
2018-Feb-14 02:01N 38°39' W 009°49'4 8.0
2018-Feb-14 01:31N 38°35' W 009°47'4 8.2
2018-Feb-14 01:00N 38°31' W 009°46'4 8.1
2018-Feb-14 00:30N 38°27' W 009°45'4 8.0
2018-Feb-14 00:00N 38°23' W 009°44'5 7.8
2018-Feb-13 23:25N 38°19' W 009°43'11 7.9
2018-Feb-13 21:59N 38°08' W 009°40'238 7.4
2018-Feb-12 13:52N 36°00' W 005°27'2 6.4
2018-Feb-12 13:30N 36°01' W 005°25'4 7.3
2018-Feb-12 13:00N 35°57' W 005°22'4 7.6
2018-Feb-12 12:30N 35°55' W 005°19'1 2.2
2018-Feb-12 12:00N 35°54' W 005°18'0 0.0
2018-Feb-12 11:30N 35°54' W 005°18'0 0.0
2018-Feb-12 11:00N 35°54' W 005°18'0 0.0
2018-Feb-12 10:30N 35°54' W 005°18'0 0.0
2018-Feb-12 10:00N 35°54' W 005°18'0 0.0
2018-Feb-12 09:30N 35°54' W 005°18'0 0.1
2018-Feb-12 09:00N 35°54' W 005°18'2 4.5
2018-Feb-12 08:30N 35°56' W 005°17'233 7.6
2018-Feb-11 01:56N 37°24' W 000°49'4 9.4
2018-Feb-11 01:30N 37°26' W 000°45'5 9.0
2018-Feb-11 00:58N 37°30' W 000°40'5 9.0
2018-Feb-11 00:26N 37°33' W 000°36'5 8.8
2018-Feb-10 23:51N 37°37' W 000°31'3 8.6
2018-Feb-10 23:30N 37°39' W 000°29'4 8.5
2018-Feb-10 23:00N 37°43' W 000°26'  

Dump ship's entire track history